sensor_id;sensor_type;location;lat;lon;timestamp;pressure;altitude;pressure_sealevel;temperature;humidity
52032;BME280;38044;45.148;39.604;2023-08-07T00:00:46;99785.88;;;25.06;61.39
52032;BME280;38044;45.148;39.604;2023-08-07T00:03:12;99805.53;;;25.01;62.95
52032;BME280;38044;45.148;39.604;2023-08-07T00:05:45;99799.34;;;24.89;64.45
52032;BME280;38044;45.148;39.604;2023-08-07T00:08:11;99811.63;;;24.81;64.84
52032;BME280;38044;45.148;39.604;2023-08-07T00:10:37;99809.34;;;24.69;64.86
52032;BME280;38044;45.148;39.604;2023-08-07T00:13:03;99813.78;;;24.56;64.69
52032;BME280;38044;45.148;39.604;2023-08-07T00:15:29;99812.47;;;24.71;63.35
52032;BME280;38044;45.148;39.604;2023-08-07T00:17:55;99825.63;;;24.94;61.97
52032;BME280;38044;45.148;39.604;2023-08-07T00:20:21;99821.22;;;25.04;61.13
52032;BME280;38044;45.148;39.604;2023-08-07T00:22:47;99820.44;;;25.07;61.68
52032;BME280;38044;45.148;39.604;2023-08-07T00:25:13;99818.16;;;24.94;61.86
52032;BME280;38044;45.148;39.604;2023-08-07T00:27:38;99823.63;;;25.02;62.09
52032;BME280;38044;45.148;39.604;2023-08-07T00:30:05;99830.41;;;24.86;64.02
52032;BME280;38044;45.148;39.604;2023-08-07T00:32:30;99822.03;;;25.01;62.08
52032;BME280;38044;45.148;39.604;2023-08-07T00:34:56;99825.25;;;24.95;62.95
52032;BME280;38044;45.148;39.604;2023-08-07T00:37:22;99819.78;;;24.88;64.90
52032;BME280;38044;45.148;39.604;2023-08-07T00:39:48;99820.56;;;24.92;63.41
52032;BME280;38044;45.148;39.604;2023-08-07T00:42:14;99802.06;;;24.97;62.21
52032;BME280;38044;45.148;39.604;2023-08-07T00:44:39;99833.03;;;25.01;62.49
52032;BME280;38044;45.148;39.604;2023-08-07T00:47:06;99819.19;;;24.70;64.06
52032;BME280;38044;45.148;39.604;2023-08-07T00:49:32;99817.56;;;24.76;63.43
52032;BME280;38044;45.148;39.604;2023-08-07T00:51:58;99826.09;;;24.85;62.53
52032;BME280;38044;45.148;39.604;2023-08-07T00:54:25;99825.97;;;25.00;61.46
52032;BME280;38044;45.148;39.604;2023-08-07T00:56:51;99818.63;;;24.86;61.88
52032;BME280;38044;45.148;39.604;2023-08-07T00:59:18;99825.16;;;25.03;61.34
52032;BME280;38044;45.148;39.604;2023-08-07T01:01:45;99828.63;;;25.14;60.51
52032;BME280;38044;45.148;39.604;2023-08-07T01:04:10;99837.56;;;25.25;60.48
52032;BME280;38044;45.148;39.604;2023-08-07T01:06:36;99836.06;;;25.17;60.46
52032;BME280;38044;45.148;39.604;2023-08-07T01:09:03;99852.22;;;25.08;61.36
52032;BME280;38044;45.148;39.604;2023-08-07T01:14:50;99867.66;;;24.94;62.07
52032;BME280;38044;45.148;39.604;2023-08-07T01:17:20;99870.19;;;24.71;63.12
52032;BME280;38044;45.148;39.604;2023-08-07T01:19:47;99874.13;;;24.66;62.96
52032;BME280;38044;45.148;39.604;2023-08-07T01:22:16;99893.38;;;24.70;63.32
52032;BME280;38044;45.148;39.604;2023-08-07T01:24:44;99895.72;;;24.68;63.83
52032;BME280;38044;45.148;39.604;2023-08-07T01:30:35;99902.91;;;24.51;64.98
52032;BME280;38044;45.148;39.604;2023-08-07T01:35:40;99898.63;;;24.39;66.27
52032;BME280;38044;45.148;39.604;2023-08-07T01:38:08;99896.66;;;24.40;66.10
52032;BME280;38044;45.148;39.604;2023-08-07T01:40:36;99897.06;;;24.38;66.16
52032;BME280;38044;45.148;39.604;2023-08-07T01:43:03;99896.28;;;24.34;67.10
52032;BME280;38044;45.148;39.604;2023-08-07T01:45:29;99894.81;;;24.12;67.73
52032;BME280;38044;45.148;39.604;2023-08-07T01:47:55;99904.25;;;24.11;69.16
52032;BME280;38044;45.148;39.604;2023-08-07T01:50:22;99899.16;;;24.05;68.94
52032;BME280;38044;45.148;39.604;2023-08-07T01:52:49;99908.59;;;24.04;68.94
52032;BME280;38044;45.148;39.604;2023-08-07T01:55:17;99914.09;;;23.94;68.66
52032;BME280;38044;45.148;39.604;2023-08-07T01:57:43;99900.41;;;23.90;68.56
52032;BME280;38044;45.148;39.604;2023-08-07T02:00:10;99912.19;;;23.80;69.63
52032;BME280;38044;45.148;39.604;2023-08-07T02:02:36;99912.19;;;23.66;70.10
52032;BME280;38044;45.148;39.604;2023-08-07T02:05:03;99918.47;;;23.70;70.18
52032;BME280;38044;45.148;39.604;2023-08-07T02:07:29;99907.53;;;23.41;70.72
52032;BME280;38044;45.148;39.604;2023-08-07T02:09:55;99903.59;;;23.49;72.23
52032;BME280;38044;45.148;39.604;2023-08-07T02:12:21;99923.19;;;23.51;70.04
52032;BME280;38044;45.148;39.604;2023-08-07T02:14:47;99922.00;;;23.63;69.47
52032;BME280;38044;45.148;39.604;2023-08-07T02:17:13;99927.91;;;23.47;70.53
52032;BME280;38044;45.148;39.604;2023-08-07T02:19:39;99922.00;;;23.59;69.33
52032;BME280;38044;45.148;39.604;2023-08-07T02:22:05;99932.22;;;23.55;70.10
52032;BME280;38044;45.148;39.604;2023-08-07T02:24:31;99933.38;;;23.51;71.46
52032;BME280;38044;45.148;39.604;2023-08-07T02:26:57;99938.84;;;23.61;70.68
52032;BME280;38044;45.148;39.604;2023-08-07T02:29:23;99935.72;;;23.77;69.48
52032;BME280;38044;45.148;39.604;2023-08-07T02:31:49;99943.56;;;23.65;69.57
52032;BME280;38044;45.148;39.604;2023-08-07T02:34:15;99953.75;;;23.64;69.23
52032;BME280;38044;45.148;39.604;2023-08-07T02:36:41;99960.41;;;23.67;69.25
52032;BME280;38044;45.148;39.604;2023-08-07T02:39:07;99952.19;;;23.56;70.64
52032;BME280;38044;45.148;39.604;2023-08-07T02:41:33;99960.03;;;23.72;69.75
52032;BME280;38044;45.148;39.604;2023-08-07T02:43:58;99963.16;;;23.56;71.31
52032;BME280;38044;45.148;39.604;2023-08-07T02:46:24;99963.19;;;23.52;71.97
52032;BME280;38044;45.148;39.604;2023-08-07T02:48:50;99972.94;;;23.82;70.94
52032;BME280;38044;45.148;39.604;2023-08-07T02:51:16;99974.06;;;24.13;68.52
52032;BME280;38044;45.148;39.604;2023-08-07T02:53:41;99973.19;;;24.34;67.30
52032;BME280;38044;45.148;39.604;2023-08-07T02:56:07;99982.19;;;24.45;67.37
52032;BME280;38044;45.148;39.604;2023-08-07T02:58:33;99995.16;;;24.41;69.40
52032;BME280;38044;45.148;39.604;2023-08-07T03:01:05;99991.59;;;24.52;69.46
52032;BME280;38044;45.148;39.604;2023-08-07T03:03:32;99985.69;;;24.57;68.35
52032;BME280;38044;45.148;39.604;2023-08-07T03:05:58;99979.34;;;24.70;68.16
52032;BME280;38044;45.148;39.604;2023-08-07T03:08:24;99980.72;;;25.00;67.54
52032;BME280;38044;45.148;39.604;2023-08-07T03:10:54;99979.84;;;25.17;66.93
52032;BME280;38044;45.148;39.604;2023-08-07T03:13:21;99981.19;;;25.47;64.73
52032;BME280;38044;45.148;39.604;2023-08-07T03:15:47;99986.44;;;25.76;63.92
52032;BME280;38044;45.148;39.604;2023-08-07T03:18:16;99986.44;;;25.72;65.02
52032;BME280;38044;45.148;39.604;2023-08-07T03:20:42;99984.75;;;25.89;66.34
52032;BME280;38044;45.148;39.604;2023-08-07T03:23:09;99993.19;;;26.09;66.29
52032;BME280;38044;45.148;39.604;2023-08-07T03:25:35;99999.28;;;26.27;66.16
52032;BME280;38044;45.148;39.604;2023-08-07T03:28:01;99987.94;;;26.56;65.04
52032;BME280;38044;45.148;39.604;2023-08-07T03:30:27;100000.25;;;26.79;65.40
52032;BME280;38044;45.148;39.604;2023-08-07T03:32:52;99997.28;;;26.93;65.46
52032;BME280;38044;45.148;39.604;2023-08-07T03:35:18;100006.13;;;27.08;65.83
52032;BME280;38044;45.148;39.604;2023-08-07T03:37:44;100002.66;;;27.31;65.51
52032;BME280;38044;45.148;39.604;2023-08-07T03:40:10;100007.47;;;27.50;65.98
52032;BME280;38044;45.148;39.604;2023-08-07T03:42:36;100003.50;;;27.75;64.67
52032;BME280;38044;45.148;39.604;2023-08-07T03:45:02;100000.97;;;28.07;64.01
52032;BME280;38044;45.148;39.604;2023-08-07T03:47:28;100018.53;;;28.57;63.34
52032;BME280;38044;45.148;39.604;2023-08-07T03:49:53;100007.53;;;29.59;60.22
52032;BME280;38044;45.148;39.604;2023-08-07T03:52:19;100014.59;;;30.51;57.73
52032;BME280;38044;45.148;39.604;2023-08-07T03:54:46;100029.28;;;31.15;56.18
52032;BME280;38044;45.148;39.604;2023-08-07T03:57:11;100027.41;;;31.25;55.55
52032;BME280;38044;45.148;39.604;2023-08-07T03:59:37;100027.03;;;31.61;55.06
52032;BME280;38044;45.148;39.604;2023-08-07T04:02:03;100030.63;;;31.97;53.89
52032;BME280;38044;45.148;39.604;2023-08-07T04:04:29;100034.41;;;32.47;52.51
52032;BME280;38044;45.148;39.604;2023-08-07T04:06:55;100032.25;;;32.82;51.66
52032;BME280;38044;45.148;39.604;2023-08-07T04:09:20;100038.31;;;33.12;51.41
52032;BME280;38044;45.148;39.604;2023-08-07T04:11:46;100032.50;;;33.37;50.76
52032;BME280;38044;45.148;39.604;2023-08-07T04:14:12;100031.78;;;33.64;49.96
52032;BME280;38044;45.148;39.604;2023-08-07T04:16:37;100028.88;;;34.23;48.50
52032;BME280;38044;45.148;39.604;2023-08-07T04:19:03;100022.56;;;34.84;47.36
52032;BME280;38044;45.148;39.604;2023-08-07T04:21:32;100026.34;;;34.62;47.85
52032;BME280;38044;45.148;39.604;2023-08-07T04:23:58;100017.00;;;34.74;47.93
52032;BME280;38044;45.148;39.604;2023-08-07T04:26:25;100019.84;;;35.80;45.73
52032;BME280;38044;45.148;39.604;2023-08-07T04:28:51;100020.16;;;36.80;43.90
52032;BME280;38044;45.148;39.604;2023-08-07T04:31:16;100026.38;;;37.81;41.72
52032;BME280;38044;45.148;39.604;2023-08-07T04:33:42;100036.09;;;38.58;40.29
52032;BME280;38044;45.148;39.604;2023-08-07T04:36:08;100032.81;;;38.97;39.45
52032;BME280;38044;45.148;39.604;2023-08-07T04:38:33;100035.19;;;39.47;39.04
52032;BME280;38044;45.148;39.604;2023-08-07T04:40:59;100037.94;;;39.36;38.42
52032;BME280;38044;45.148;39.604;2023-08-07T04:43:24;100038.72;;;39.42;38.77
52032;BME280;38044;45.148;39.604;2023-08-07T04:45:50;100040.59;;;39.62;38.29
52032;BME280;38044;45.148;39.604;2023-08-07T04:48:16;100033.34;;;39.98;37.85
52032;BME280;38044;45.148;39.604;2023-08-07T04:50:43;100034.69;;;40.31;38.23
52032;BME280;38044;45.148;39.604;2023-08-07T04:53:08;100039.31;;;40.57;36.96
52032;BME280;38044;45.148;39.604;2023-08-07T04:55:34;100038.28;;;40.82;36.57
52032;BME280;38044;45.148;39.604;2023-08-07T04:57:59;100038.25;;;41.05;36.49
52032;BME280;38044;45.148;39.604;2023-08-07T05:00:25;100042.63;;;41.06;36.90
52032;BME280;38044;45.148;39.604;2023-08-07T05:02:51;100038.00;;;40.91;35.97
52032;BME280;38044;45.148;39.604;2023-08-07T05:05:16;100040.31;;;41.15;36.29
52032;BME280;38044;45.148;39.604;2023-08-07T05:07:44;100041.75;;;41.45;36.18
52032;BME280;38044;45.148;39.604;2023-08-07T05:10:09;100043.63;;;41.03;36.52
52032;BME280;38044;45.148;39.604;2023-08-07T05:12:35;100046.44;;;41.19;37.09
52032;BME280;38044;45.148;39.604;2023-08-07T05:15:01;100051.59;;;41.15;36.89
52032;BME280;38044;45.148;39.604;2023-08-07T05:17:26;100048.25;;;41.06;36.92
52032;BME280;38044;45.148;39.604;2023-08-07T05:19:52;100050.28;;;41.22;36.87
52032;BME280;38044;45.148;39.604;2023-08-07T05:22:18;100047.72;;;41.18;36.43
52032;BME280;38044;45.148;39.604;2023-08-07T05:24:43;100045.19;;;40.92;36.77
52032;BME280;38044;45.148;39.604;2023-08-07T05:27:10;100054.63;;;41.01;36.64
52032;BME280;38044;45.148;39.604;2023-08-07T05:29:36;100053.78;;;41.51;35.95
52032;BME280;38044;45.148;39.604;2023-08-07T05:32:08;100058.41;;;41.42;36.21
52032;BME280;38044;45.148;39.604;2023-08-07T05:34:34;100057.50;;;41.81;35.68
52032;BME280;38044;45.148;39.604;2023-08-07T05:37:00;100061.03;;;41.18;37.02
52032;BME280;38044;45.148;39.604;2023-08-07T05:39:25;100061.06;;;41.88;36.44
52032;BME280;38044;45.148;39.604;2023-08-07T05:41:51;100065.09;;;41.39;36.51
52032;BME280;38044;45.148;39.604;2023-08-07T05:44:19;100066.16;;;41.03;37.08
52032;BME280;38044;45.148;39.604;2023-08-07T05:46:44;100068.22;;;41.02;36.73
52032;BME280;38044;45.148;39.604;2023-08-07T05:49:10;100080.81;;;40.73;37.72
52032;BME280;38044;45.148;39.604;2023-08-07T05:51:35;100079.53;;;40.63;37.81
52032;BME280;38044;45.148;39.604;2023-08-07T05:54:01;100079.00;;;40.92;37.47
52032;BME280;38044;45.148;39.604;2023-08-07T05:56:26;100066.16;;;41.25;37.12
52032;BME280;38044;45.148;39.604;2023-08-07T05:58:52;100072.28;;;41.29;35.92
52032;BME280;38044;45.148;39.604;2023-08-07T06:01:17;100069.53;;;41.07;37.02
52032;BME280;38044;45.148;39.604;2023-08-07T06:03:43;100074.13;;;41.15;36.11
52032;BME280;38044;45.148;39.604;2023-08-07T06:06:08;100079.53;;;40.63;36.89
52032;BME280;38044;45.148;39.604;2023-08-07T06:08:34;100080.06;;;40.67;36.70
52032;BME280;38044;45.148;39.604;2023-08-07T06:10:59;100082.06;;;40.49;37.79
52032;BME280;38044;45.148;39.604;2023-08-07T06:13:28;100084.66;;;40.81;36.65
52032;BME280;38044;45.148;39.604;2023-08-07T06:15:54;100082.91;;;41.81;35.44
52032;BME280;38044;45.148;39.604;2023-08-07T06:18:20;100076.44;;;41.92;34.59
52032;BME280;38044;45.148;39.604;2023-08-07T06:20:45;100070.03;;;41.92;34.92
52032;BME280;38044;45.148;39.604;2023-08-07T06:23:11;100072.97;;;42.16;34.83
52032;BME280;38044;45.148;39.604;2023-08-07T06:25:37;100080.56;;;41.85;34.75
52032;BME280;38044;45.148;39.604;2023-08-07T06:28:03;100072.84;;;41.11;35.87
52032;BME280;38044;45.148;39.604;2023-08-07T06:30:30;100085.69;;;40.67;37.27
52032;BME280;38044;45.148;39.604;2023-08-07T06:32:56;100082.81;;;41.17;36.79
52032;BME280;38044;45.148;39.604;2023-08-07T06:35:21;100071.88;;;41.78;35.68
52032;BME280;38044;45.148;39.604;2023-08-07T06:37:47;100081.91;;;42.20;35.10
52032;BME280;38044;45.148;39.604;2023-08-07T06:40:12;100084.66;;;42.37;34.15
52032;BME280;38044;45.148;39.604;2023-08-07T06:42:38;100086.41;;;42.04;34.57
52032;BME280;38044;45.148;39.604;2023-08-07T06:45:03;100078.56;;;42.27;34.71
52032;BME280;38044;45.148;39.604;2023-08-07T06:47:29;100098.75;;;41.96;35.07
52032;BME280;38044;45.148;39.604;2023-08-07T06:49:55;100081.31;;;41.92;34.96
52032;BME280;38044;45.148;39.604;2023-08-07T06:52:20;100089.34;;;42.23;35.31
52032;BME280;38044;45.148;39.604;2023-08-07T06:54:46;100081.16;;;42.20;35.01
52032;BME280;38044;45.148;39.604;2023-08-07T06:57:12;100079.94;;;42.81;33.89
52032;BME280;38044;45.148;39.604;2023-08-07T06:59:38;100086.56;;;42.89;33.32
52032;BME280;38044;45.148;39.604;2023-08-07T07:02:04;100091.56;;;42.42;34.46
52032;BME280;38044;45.148;39.604;2023-08-07T07:04:29;100094.50;;;42.61;34.37
52032;BME280;38044;45.148;39.604;2023-08-07T07:06:55;100093.19;;;42.26;34.85
52032;BME280;38044;45.148;39.604;2023-08-07T07:09:20;100093.00;;;42.18;35.19
52032;BME280;38044;45.148;39.604;2023-08-07T07:11:46;100105.13;;;42.49;34.53
52032;BME280;38044;45.148;39.604;2023-08-07T07:14:11;100091.31;;;42.40;34.24
52032;BME280;38044;45.148;39.604;2023-08-07T07:16:37;100099.28;;;42.41;35.11
52032;BME280;38044;45.148;39.604;2023-08-07T07:19:03;100104.63;;;43.11;33.68
52032;BME280;38044;45.148;39.604;2023-08-07T07:21:29;100117.44;;;43.42;33.58
52032;BME280;38044;45.148;39.604;2023-08-07T07:23:54;100121.38;;;43.58;32.46
52032;BME280;38044;45.148;39.604;2023-08-07T07:26:20;100110.63;;;43.51;33.14
52032;BME280;38044;45.148;39.604;2023-08-07T07:28:45;100114.50;;;43.72;33.50
52032;BME280;38044;45.148;39.604;2023-08-07T07:31:11;100128.19;;;43.44;33.30
52032;BME280;38044;45.148;39.604;2023-08-07T07:33:37;100125.53;;;43.27;33.56
52032;BME280;38044;45.148;39.604;2023-08-07T07:36:04;100115.19;;;43.35;33.72
52032;BME280;38044;45.148;39.604;2023-08-07T07:38:30;100122.13;;;43.58;32.94
52032;BME280;38044;45.148;39.604;2023-08-07T07:40:56;100122.91;;;43.34;33.41
52032;BME280;38044;45.148;39.604;2023-08-07T07:43:22;100119.78;;;43.38;33.22
52032;BME280;38044;45.148;39.604;2023-08-07T07:45:49;100116.25;;;43.32;33.17
52032;BME280;38044;45.148;39.604;2023-08-07T07:48:14;100120.88;;;43.54;32.67
52032;BME280;38044;45.148;39.604;2023-08-07T07:50:40;100119.56;;;43.36;33.72
52032;BME280;38044;45.148;39.604;2023-08-07T07:53:06;100120.09;;;43.04;34.09
52032;BME280;38044;45.148;39.604;2023-08-07T07:55:32;100122.69;;;43.02;33.83
52032;BME280;38044;45.148;39.604;2023-08-07T07:57:59;100123.72;;;42.69;34.92
52032;BME280;38044;45.148;39.604;2023-08-07T08:00:24;100128.34;;;43.02;33.35
52032;BME280;38044;45.148;39.604;2023-08-07T08:02:53;100130.94;;;42.64;33.62
52032;BME280;38044;45.148;39.604;2023-08-07T08:05:19;100123.53;;;42.61;33.85
52032;BME280;38044;45.148;39.604;2023-08-07T08:07:44;100134.03;;;42.19;33.86
52032;BME280;38044;45.148;39.604;2023-08-07T08:10:10;100127.75;;;41.96;34.50
52032;BME280;38044;45.148;39.604;2023-08-07T08:12:36;100124.41;;;41.86;34.67
52032;BME280;38044;45.148;39.604;2023-08-07T08:15:02;100134.59;;;42.12;34.42
52032;BME280;38044;45.148;39.604;2023-08-07T08:17:28;100128.09;;;42.23;34.70
52032;BME280;38044;45.148;39.604;2023-08-07T08:19:54;100130.53;;;42.02;34.34
52032;BME280;38044;45.148;39.604;2023-08-07T08:22:19;100130.72;;;42.15;34.33
52032;BME280;38044;45.148;39.604;2023-08-07T08:24:45;100133.50;;;42.68;33.93
52032;BME280;38044;45.148;39.604;2023-08-07T08:27:10;100126.53;;;43.29;33.02
52032;BME280;38044;45.148;39.604;2023-08-07T08:29:36;100136.34;;;43.53;32.92
52032;BME280;38044;45.148;39.604;2023-08-07T08:32:02;100129.03;;;43.63;31.74
52032;BME280;38044;45.148;39.604;2023-08-07T08:34:27;100132.47;;;43.99;32.00
52032;BME280;38044;45.148;39.604;2023-08-07T08:36:53;100141.81;;;43.45;31.67
52032;BME280;38044;45.148;39.604;2023-08-07T08:39:18;100135.34;;;43.50;32.19
52032;BME280;38044;45.148;39.604;2023-08-07T08:41:47;100134.31;;;43.23;31.64
52032;BME280;38044;45.148;39.604;2023-08-07T08:44:13;100141.09;;;43.14;32.45
52032;BME280;38044;45.148;39.604;2023-08-07T08:46:39;100148.03;;;42.83;32.50
52032;BME280;38044;45.148;39.604;2023-08-07T08:49:07;100150.09;;;42.47;33.13
52032;BME280;38044;45.148;39.604;2023-08-07T08:51:33;100148.38;;;42.33;33.38
52032;BME280;38044;45.148;39.604;2023-08-07T08:53:59;100146.28;;;42.39;32.61
52032;BME280;38044;45.148;39.604;2023-08-07T08:56:27;100149.94;;;42.22;32.67
52032;BME280;38044;45.148;39.604;2023-08-07T08:58:53;100154.94;;;41.88;32.86
52032;BME280;38044;45.148;39.604;2023-08-07T09:01:18;100148.28;;;41.91;34.10
52032;BME280;38044;45.148;39.604;2023-08-07T09:03:47;100140.63;;;42.39;32.57
52032;BME280;38044;45.148;39.604;2023-08-07T09:06:16;100146.94;;;42.92;32.11
52032;BME280;38044;45.148;39.604;2023-08-07T09:08:42;100153.66;;;43.19;31.85
52032;BME280;38044;45.148;39.604;2023-08-07T09:11:08;100158.91;;;43.34;31.60
52032;BME280;38044;45.148;39.604;2023-08-07T09:13:36;100150.94;;;43.32;31.92
52032;BME280;38044;45.148;39.604;2023-08-07T09:16:02;100158.38;;;43.84;31.41
52032;BME280;38044;45.148;39.604;2023-08-07T09:18:28;100155.72;;;44.11;31.32
52032;BME280;38044;45.148;39.604;2023-08-07T09:20:53;100151.09;;;43.70;31.39
52032;BME280;38044;45.148;39.604;2023-08-07T09:23:19;100158.44;;;43.79;32.09
52032;BME280;38044;45.148;39.604;2023-08-07T09:25:45;100165.22;;;43.70;31.58
52032;BME280;38044;45.148;39.604;2023-08-07T09:28:11;100164.03;;;43.84;31.63
52032;BME280;38044;45.148;39.604;2023-08-07T09:30:36;100163.88;;;43.77;31.89
52032;BME280;38044;45.148;39.604;2023-08-07T09:33:03;100161.09;;;44.15;31.89
52032;BME280;38044;45.148;39.604;2023-08-07T09:35:29;100157.44;;;44.39;31.09
52032;BME280;38044;45.148;39.604;2023-08-07T09:37:56;100154.50;;;44.44;30.56
52032;BME280;38044;45.148;39.604;2023-08-07T09:40:22;100153.44;;;44.10;31.43
52032;BME280;38044;45.148;39.604;2023-08-07T09:42:54;100155.72;;;44.11;31.24
52032;BME280;38044;45.148;39.604;2023-08-07T09:45:21;100150.03;;;44.30;31.35
52032;BME280;38044;45.148;39.604;2023-08-07T09:47:46;100150.97;;;44.38;31.40
52032;BME280;38044;45.148;39.604;2023-08-07T09:50:16;100163.00;;;44.44;31.41
52032;BME280;38044;45.148;39.604;2023-08-07T09:52:45;100164.19;;;43.43;31.98
52032;BME280;38044;45.148;39.604;2023-08-07T09:55:11;100165.34;;;43.04;33.11
52032;BME280;38044;45.148;39.604;2023-08-07T09:57:38;100173.91;;;43.23;32.82
52032;BME280;38044;45.148;39.604;2023-08-07T10:00:05;100167.72;;;43.49;33.35
52032;BME280;38044;45.148;39.604;2023-08-07T10:03:07;100177.25;;;43.76;32.87
52032;BME280;38044;45.148;39.604;2023-08-07T10:05:33;100174.47;;;43.71;33.70
52032;BME280;38044;45.148;39.604;2023-08-07T10:07:59;100168.06;;;43.15;33.19
52032;BME280;38044;45.148;39.604;2023-08-07T10:10:25;100159.72;;;42.21;34.30
52032;BME280;38044;45.148;39.604;2023-08-07T10:12:51;100173.53;;;41.38;35.32
52032;BME280;38044;45.148;39.604;2023-08-07T10:15:17;100172.22;;;40.89;36.65
52032;BME280;38044;45.148;39.604;2023-08-07T10:17:43;100167.59;;;40.69;36.87
52032;BME280;38044;45.148;39.604;2023-08-07T10:20:08;100172.63;;;40.37;37.63
52032;BME280;38044;45.148;39.604;2023-08-07T10:22:34;100175.09;;;40.18;38.16
52032;BME280;38044;45.148;39.604;2023-08-07T10:25:02;100169.28;;;40.21;37.62
52032;BME280;38044;45.148;39.604;2023-08-07T10:27:29;100174.16;;;40.21;37.94
52032;BME280;38044;45.148;39.604;2023-08-07T10:29:54;100179.28;;;40.28;38.29
52032;BME280;38044;45.148;39.604;2023-08-07T10:32:23;100179.78;;;40.32;38.04
52032;BME280;38044;45.148;39.604;2023-08-07T10:34:50;100186.38;;;40.18;37.93
52032;BME280;38044;45.148;39.604;2023-08-07T10:38:04;100182.25;;;40.07;38.86
52032;BME280;38044;45.148;39.604;2023-08-07T10:40:02;100180.72;;;40.06;38.36
52032;BME280;38044;45.148;39.604;2023-08-07T10:42:32;100182.13;;;39.85;39.28
52032;BME280;38044;45.148;39.604;2023-08-07T10:45:00;100185.34;;;39.67;39.34
52032;BME280;38044;45.148;39.604;2023-08-07T10:47:32;100188.94;;;39.67;38.78
52032;BME280;38044;45.148;39.604;2023-08-07T10:49:58;100191.75;;;39.67;39.27
52032;BME280;38044;45.148;39.604;2023-08-07T10:52:24;100198.59;;;39.60;39.42
52032;BME280;38044;45.148;39.604;2023-08-07T10:54:50;100193.16;;;39.51;40.05
52032;BME280;38044;45.148;39.604;2023-08-07T10:57:16;100189.06;;;39.47;39.71
52032;BME280;38044;45.148;39.604;2023-08-07T11:02:25;100193.94;;;39.20;39.97
52032;BME280;38044;45.148;39.604;2023-08-07T11:04:51;100194.31;;;39.33;40.31
52032;BME280;38044;45.148;39.604;2023-08-07T11:07:24;100202.91;;;39.24;40.42
52032;BME280;38044;45.148;39.604;2023-08-07T11:09:50;100196.88;;;39.05;39.96
52032;BME280;38044;45.148;39.604;2023-08-07T11:12:16;100203.09;;;38.89;40.44
52032;BME280;38044;45.148;39.604;2023-08-07T11:14:41;100197.53;;;38.94;40.31
52032;BME280;38044;45.148;39.604;2023-08-07T11:17:07;100200.16;;;38.78;41.04
52032;BME280;38044;45.148;39.604;2023-08-07T11:19:33;100204.66;;;38.90;40.84
52032;BME280;38044;45.148;39.604;2023-08-07T11:21:58;100198.06;;;38.93;40.47
52032;BME280;38044;45.148;39.604;2023-08-07T11:24:26;100195.09;;;38.82;40.54
52032;BME280;38044;45.148;39.604;2023-08-07T11:26:52;100194.09;;;38.85;40.94
52032;BME280;38044;45.148;39.604;2023-08-07T11:29:18;100196.97;;;38.64;41.87
52032;BME280;38044;45.148;39.604;2023-08-07T11:31:44;100196.50;;;38.45;41.77
52032;BME280;38044;45.148;39.604;2023-08-07T11:34:10;100201.97;;;38.34;41.77
52032;BME280;38044;45.148;39.604;2023-08-07T11:36:42;100204.84;;;38.40;41.98
52032;BME280;38044;45.148;39.604;2023-08-07T11:39:08;100198.09;;;38.31;41.51
52032;BME280;38044;45.148;39.604;2023-08-07T11:41:33;100205.44;;;38.44;41.06
52032;BME280;38044;45.148;39.604;2023-08-07T11:43:59;100204.31;;;38.15;41.66
52032;BME280;38044;45.148;39.604;2023-08-07T11:46:25;100212.56;;;38.04;42.35
52032;BME280;38044;45.148;39.604;2023-08-07T11:48:51;100205.97;;;38.07;42.26
52032;BME280;38044;45.148;39.604;2023-08-07T11:51:17;100212.00;;;38.00;42.02
52032;BME280;38044;45.148;39.604;2023-08-07T11:53:42;100215.53;;;37.95;42.28
52032;BME280;38044;45.148;39.604;2023-08-07T11:56:09;100213.94;;;37.94;41.78
52032;BME280;38044;45.148;39.604;2023-08-07T11:58:38;100207.53;;;37.93;42.47
52032;BME280;38044;45.148;39.604;2023-08-07T12:01:04;100214.81;;;38.00;42.77
52032;BME280;38044;45.148;39.604;2023-08-07T12:03:31;100211.13;;;37.94;41.40
52032;BME280;38044;45.148;39.604;2023-08-07T12:05:57;100209.13;;;37.79;42.26
52032;BME280;38044;45.148;39.604;2023-08-07T12:08:23;100210.94;;;37.62;42.09
52032;BME280;38044;45.148;39.604;2023-08-07T12:10:58;100214.63;;;37.53;42.00
52032;BME280;38044;45.148;39.604;2023-08-07T12:13:23;100219.44;;;37.68;42.72
52032;BME280;38044;45.148;39.604;2023-08-07T12:15:51;100213.66;;;37.41;42.75
52032;BME280;38044;45.148;39.604;2023-08-07T12:18:17;100206.34;;;37.29;42.54
52032;BME280;38044;45.148;39.604;2023-08-07T12:20:43;100208.25;;;37.53;43.85
52032;BME280;38044;45.148;39.604;2023-08-07T12:23:13;100211.72;;;37.48;43.95
52032;BME280;38044;45.148;39.604;2023-08-07T12:25:39;100211.94;;;37.29;43.26
52032;BME280;38044;45.148;39.604;2023-08-07T12:28:05;100216.28;;;37.30;43.69
52032;BME280;38044;45.148;39.604;2023-08-07T12:30:33;100219.63;;;37.34;43.83
52032;BME280;38044;45.148;39.604;2023-08-07T12:32:59;100223.63;;;37.28;43.42
52032;BME280;38044;45.148;39.604;2023-08-07T12:35:24;100223.44;;;37.16;43.71
52032;BME280;38044;45.148;39.604;2023-08-07T12:37:50;100215.63;;;37.20;44.33
52032;BME280;38044;45.148;39.604;2023-08-07T12:40:15;100221.38;;;37.17;43.62
52032;BME280;38044;45.148;39.604;2023-08-07T12:42:45;100225.66;;;37.12;44.28
52032;BME280;38044;45.148;39.604;2023-08-07T12:45:11;100220.00;;;36.83;43.40
52032;BME280;38044;45.148;39.604;2023-08-07T12:47:37;100217.41;;;36.94;44.14
52032;BME280;38044;45.148;39.604;2023-08-07T12:50:02;100220.78;;;36.98;43.97